Time;durP1;ratioP1;P1;durP2;ratioP2;P2;SDS_P1;SDS_P2;PMS_P1;PMS_P2;Temp;Humidity;BMP_temperature;BMP_pressure;BME280_temperature;BME280_humidity;BME280_pressure;Samples;Min_cycle;Max_cycle;Signal;HPM_P1;HPM_P2
2022/11/28 02:31:05;;;;;;;16.60;10.00;;;;;;;5.09;76.07;101644.60;106085;1303;21963;-68
2022/11/28 02:33:33;;;;;;;18.00;11.30;;;;;;;5.35;73.87;101647.63;106064;1300;21957;-68
2022/11/28 02:36:20;;;;;;;16.80;10.50;;;;;;;5.73;72.56;101643.48;106152;1304;21956;-69
2022/11/28 02:38:57;;;;;;;14.40;8.80;;;;;;;6.03;71.19;101640.67;105821;1303;378621;-68
2022/11/28 02:41:43;;;;;;;12.30;7.80;;;;;;;6.16;70.84;101637.01;106227;1297;21952;-69
2022/11/28 02:44:17;;;;;;;12.90;7.10;;;;;;;6.19;70.65;101637.09;106121;1303;21975;-68
2022/11/28 02:47:04;;;;;;;12.40;6.50;;;;;;;6.36;70.43;101637.53;105837;1303;23080;-69
2022/11/28 02:49:34;;;;;;;11.70;6.70;;;;;;;6.52;69.72;101638.27;105991;1301;21967;-67
2022/11/28 02:52:18;;;;;;;10.10;6.50;;;;;;;6.63;69.56;101630.14;106145;1302;21957;-68
2022/11/28 02:54:45;;;;;;;8.70;6.30;;;;;;;6.68;69.35;101628.33;106509;1302;23614;-68
2022/11/28 02:57:10;;;;;;;9.70;6.20;;;;;;;6.65;69.33;101630.17;106134;1303;22007;-68
2022/11/28 02:59:36;;;;;;;8.30;5.80;;;;;;;7.26;67.87;101629.28;105906;1303;22056;-69
2022/11/28 03:02:19;;;;;;;8.10;5.50;;;;;;;7.41;67.14;101632.94;106161;1303;21961;-69
2022/11/28 03:05:03;;;;;;;8.20;6.10;;;;;;;7.55;66.59;101631.28;106267;1300;22002;-70
2022/11/28 03:07:44;;;;;;;9.30;6.20;;;;;;;7.67;65.95;101623.33;106345;1298;22134;-68
2022/11/28 03:10:22;;;;;;;9.50;6.30;;;;;;;7.71;65.55;101619.73;106285;1301;21967;-68
2022/11/28 03:13:10;;;;;;;10.20;6.50;;;;;;;7.56;65.48;101622.23;106297;1301;21953;-68
2022/11/28 03:16:00;;;;;;;10.70;6.40;;;;;;;7.31;66.11;101622.58;106230;1301;21954;-67
2022/11/28 03:18:39;;;;;;;;;;;;;;;7.30;66.10;101632.17;106260;1298;22398;-67
2022/11/28 03:21:15;;;;;;;10.70;6.80;;;;;;;7.22;66.46;101632.17;106205;1303;23090;-67
2022/11/28 03:23:51;;;;;;;11.90;6.50;;;;;;;7.22;66.24;101634.80;106198;1303;23665;-67
2022/11/28 03:26:24;;;;;;;9.60;6.10;;;;;;;7.23;66.45;101635.52;106172;1303;23148;-68
2022/11/28 03:29:04;;;;;;;8.90;6.10;;;;;;;7.29;66.15;101632.33;106186;1303;23094;-68
2022/11/28 03:31:36;;;;;;;11.10;7.20;;;;;;;7.36;65.84;101630.39;106119;1303;21967;-67
2022/11/28 03:34:03;;;;;;;10.60;6.50;;;;;;;7.40;65.55;101636.39;106117;1303;23726;-69
2022/11/28 03:36:31;;;;;;;11.40;7.10;;;;;;;7.40;65.03;101629.05;106161;1301;22004;-67
2022/11/28 03:39:08;;;;;;;9.80;7.00;;;;;;;7.30;65.51;101629.20;105856;1303;23815;-68
2022/11/28 03:41:41;;;;;;;9.70;6.30;;;;;;;7.34;65.43;101626.14;105863;1303;23079;-68
2022/11/28 03:44:09;;;;;;;10.30;6.20;;;;;;;7.42;65.18;101619.67;106313;1301;21970;-67
2022/11/28 03:46:37;;;;;;;13.00;6.70;;;;;;;7.43;65.26;101615.67;105870;1303;23134;-68
2022/11/28 03:49:03;;;;;;;9.20;6.30;;;;;;;7.42;65.51;101618.63;106232;1302;21960;-67
2022/11/28 03:51:36;;;;;;;9.70;6.20;;;;;;;7.50;65.16;101620.19;105836;1303;23701;-69
2022/11/28 03:54:18;;;;;;;8.70;6.10;;;;;;;7.49;64.95;101619.30;106395;1303;21961;-67
2022/11/28 03:56:58;;;;;;;11.10;6.20;;;;;;;7.49;64.78;101618.08;106352;1302;21974;-68
2022/11/28 03:59:29;;;;;;;10.60;6.80;;;;;;;7.55;64.84;101616.61;106441;1302;21959;-68
2022/11/28 04:02:05;;;;;;;12.60;6.50;;;;;;;7.60;64.42;101615.31;106256;1302;23619;-70
2022/11/28 04:04:52;;;;;;;10.20;6.70;;;;;;;7.67;64.00;101613.19;106194;1302;23630;-68
2022/11/28 04:07:40;;;;;;;12.10;7.00;;;;;;;7.62;64.25;101612.04;106280;1303;21947;-68
2022/11/28 04:10:15;;;;;;;12.70;7.00;;;;;;;7.52;64.18;101611.51;106402;1303;23109;-67
2022/11/28 04:12:53;;;;;;;10.20;6.20;;;;;;;7.53;64.53;101614.31;106428;1301;21951;-68
2022/11/28 04:15:29;;;;;;;11.10;6.50;;;;;;;7.54;64.53;101615.71;106376;1299;22781;-68
2022/11/28 04:18:20;;;;;;;9.90;6.30;;;;;;;7.32;65.22;101613.00;106149;1303;21958;-69
2022/11/28 04:20:48;;;;;;;;;;;;;;;7.18;65.56;101618.13;106109;1302;21950;-67
2022/11/28 04:23:16;;;;;;;9.90;6.20;;;;;;;7.08;65.86;101619.65;106218;1303;24357;-68
2022/11/28 04:25:45;;;;;;;11.80;7.10;;;;;;;7.10;65.58;101617.08;106029;1303;21966;-68
2022/11/28 04:28:14;;;;;;;10.20;6.80;;;;;;;7.22;65.51;101614.52;106301;1303;21960;-67
2022/11/28 04:30:40;;;;;;;12.70;7.30;;;;;;;7.32;65.21;101615.09;106322;1303;21950;-67
2022/11/28 04:33:06;;;;;;;13.00;7.50;;;;;;;7.25;65.42;101612.00;106187;1302;21965;-67
2022/11/28 04:35:36;;;;;;;10.30;7.30;;;;;;;7.27;65.23;101611.16;106299;1303;23101;-70
2022/11/28 04:38:03;;;;;;;15.60;7.20;;;;;;;7.33;64.92;101610.59;106460;1300;23628;-69
2022/11/28 04:40:30;;;;;;;10.80;6.00;;;;;;;7.33;65.13;101611.27;106313;1303;21965;-66
2022/11/28 04:43:02;;;;;;;12.00;7.20;;;;;;;7.36;65.06;101614.14;106300;1303;21964;-68
2022/11/28 04:45:36;;;;;;;12.60;7.20;;;;;;;7.38;64.87;101615.58;106401;1303;21983;-67
2022/11/28 04:48:03;;;;;;;11.20;7.10;;;;;;;7.51;64.27;101616.55;106768;1303;21964;-66
2022/11/28 04:50:31;;;;;;;11.20;7.50;;;;;;;7.49;64.05;101615.80;106456;1302;21962;-68
2022/11/28 04:53:04;;;;;;;11.10;7.50;;;;;;;7.44;64.13;101618.15;106255;1303;21954;-68
2022/11/28 04:55:36;;;;;;;10.60;7.10;;;;;;;7.41;64.25;101618.79;106275;1303;21963;-68
2022/11/28 04:58:21;;;;;;;13.70;8.10;;;;;;;7.50;64.24;101622.27;106364;1298;21960;-68
2022/11/28 05:00:49;;;;;;;11.60;6.90;;;;;;;7.66;63.85;101622.61;106309;1303;21958;-67
2022/11/28 05:03:16;;;;;;;11.60;6.90;;;;;;;7.63;63.91;101630.38;106073;1303;22063;-67
2022/11/28 05:05:46;;;;;;;11.90;7.30;;;;;;;7.61;63.94;101632.63;106331;1303;23728;-68
2022/11/28 05:08:18;;;;;;;15.00;8.20;;;;;;;7.64;63.88;101633.58;106302;1299;23644;-73
2022/11/28 05:10:44;;;;;;;24.00;8.10;;;;;;;7.62;64.09;101634.92;106364;1299;23133;-68
2022/11/28 05:13:10;;;;;;;17.80;7.80;;;;;;;7.71;64.18;101636.67;106335;1303;21963;-65
2022/11/28 05:15:36;;;;;;;13.40;7.20;;;;;;;7.79;63.98;101638.91;106171;1301;21955;-67
2022/11/28 05:18:02;;;;;;;12.10;7.70;;;;;;;7.81;63.86;101642.80;106252;1302;21955;-68
2022/11/28 05:20:28;;;;;;;15.40;8.00;;;;;;;7.73;63.75;101638.44;106226;1302;22415;-66
2022/11/28 05:22:54;;;;;;;14.20;8.10;;;;;;;7.74;63.63;101641.45;106324;1298;22040;-67
2022/11/28 05:25:20;;;;;;;12.50;8.00;;;;;;;7.76;63.60;101645.48;106240;1303;21952;-64
2022/11/28 05:27:46;;;;;;;14.70;7.90;;;;;;;7.72;63.97;101642.83;106226;1298;21954;-67
2022/11/28 05:30:13;;;;;;;16.60;8.00;;;;;;;7.69;63.83;101641.88;106227;1298;21985;-66
2022/11/28 05:32:39;;;;;;;20.50;8.90;;;;;;;7.71;63.81;101645.41;106160;1303;21956;-67
2022/11/28 05:35:05;;;;;;;15.10;8.50;;;;;;;7.59;64.38;101647.42;106126;1303;22023;-68
2022/11/28 05:37:32;;;;;;;15.50;8.00;;;;;;;7.49;64.80;101650.38;106122;1301;21992;-65
2022/11/28 05:39:58;;;;;;;18.30;9.20;;;;;;;7.47;64.76;101647.89;106303;1303;21971;-69
2022/11/28 05:42:24;;;;;;;18.10;8.20;;;;;;;7.47;64.65;101647.02;106362;1303;21953;-69
2022/11/28 05:44:53;;;;;;;22.20;9.40;;;;;;;7.54;64.55;101650.99;106256;1298;21957;-70
2022/11/28 05:47:18;;;;;;;22.70;10.20;;;;;;;7.57;64.35;101651.42;106446;1303;21965;-68
2022/11/28 05:49:46;;;;;;;19.20;8.80;;;;;;;7.59;64.32;101653.20;106164;1303;21972;-67
2022/11/28 05:52:12;;;;;;;22.80;9.90;;;;;;;7.66;64.02;101657.17;106227;1303;21966;-68
2022/11/28 05:54:37;;;;;;;13.00;8.00;;;;;;;7.59;64.30;101660.02;106188;1302;21958;-67
2022/11/28 05:57:05;;;;;;;12.80;8.80;;;;;;;7.62;64.04;101658.33;106173;1303;21955;-68
2022/11/28 05:59:32;;;;;;;15.50;7.90;;;;;;;7.63;64.24;101655.73;106170;1301;21961;-68
2022/11/28 06:01:58;;;;;;;15.20;7.80;;;;;;;7.64;64.51;101655.76;106115;1303;21957;-69
2022/11/28 06:04:24;;;;;;;20.70;8.30;;;;;;;7.62;64.68;101656.23;106237;1303;21981;-67
2022/11/28 06:06:50;;;;;;;12.70;7.40;;;;;;;7.67;64.78;101658.25;106090;1301;22165;-67
2022/11/28 06:09:15;;;;;;;14.50;8.50;;;;;;;7.67;64.85;101663.52;106165;1303;21947;-70
2022/11/28 06:11:41;;;;;;;20.40;8.20;;;;;;;7.64;64.93;101666.95;106214;1299;21968;-68
2022/11/28 06:14:09;;;;;;;14.40;8.30;;;;;;;7.57;65.39;101667.67;106144;1303;21965;-67
2022/11/28 06:16:35;;;;;;;17.80;7.70;;;;;;;7.56;65.67;101672.54;105989;1303;21956;-67
2022/11/28 06:19:01;;;;;;;12.20;7.20;;;;;;;7.67;65.56;101672.23;106150;1303;21962;-67
2022/11/28 06:21:28;;;;;;;13.10;8.30;;;;;;;7.71;65.45;101673.53;106174;1303;21971;-70
2022/11/28 06:23:57;;;;;;;15.10;9.20;;;;;;;7.76;65.23;101672.05;106335;1303;21965;-69
2022/11/28 06:26:23;;;;;;;14.30;8.50;;;;;;;7.79;65.46;101677.54;106167;1303;24045;-69
2022/11/28 06:28:49;;;;;;;15.00;8.70;;;;;;;7.80;65.35;101681.92;106303;1303;21963;-69
2022/11/28 06:31:19;;;;;;;14.30;8.30;;;;;;;7.77;65.28;101683.79;106279;1303;21958;-69
2022/11/28 06:33:45;;;;;;;13.50;8.00;;;;;;;7.75;65.19;101685.32;106299;1303;21998;-67
2022/11/28 06:36:12;;;;;;;11.00;7.90;;;;;;;7.72;65.05;101684.21;106204;1303;23601;-70
2022/11/28 06:38:40;;;;;;;16.10;9.20;;;;;;;7.75;64.87;101684.96;106189;1302;23638;-69
2022/11/28 06:41:14;;;;;;;12.30;8.10;;;;;;;7.74;65.09;101684.43;106141;1296;21969;-69
2022/11/28 06:43:40;;;;;;;13.20;8.40;;;;;;;7.76;65.07;101686.74;106425;1301;21959;-67
2022/11/28 06:46:19;;;;;;;13.80;8.10;;;;;;;7.77;65.04;101692.85;106245;1299;22001;-69
2022/11/28 06:48:45;;;;;;;12.00;8.00;;;;;;;7.77;64.97;101690.08;105900;1297;23670;-68
2022/11/28 06:51:12;;;;;;;11.10;7.40;;;;;;;7.80;64.89;101689.09;106004;1301;21954;-69
2022/11/28 06:53:38;;;;;;;12.50;8.00;;;;;;;7.84;64.70;101686.37;106478;1301;21951;-68
2022/11/28 06:56:06;;;;;;;14.50;7.60;;;;;;;7.88;64.64;101683.83;106354;1303;21954;-67
2022/11/28 06:58:33;;;;;;;11.20;8.00;;;;;;;7.86;64.48;101674.20;104214;1291;1002962;-66
2022/11/28 07:01:07;;;;;;;13.90;8.90;;;;;;;7.91;64.28;101670.45;106087;1304;22118;-68
2022/11/28 07:03:33;;;;;;;16.50;11.70;;;;;;;7.88;64.25;101673.52;106210;1301;21964;-68
2022/11/28 07:06:02;;;;;;;21.70;11.40;;;;;;;7.87;64.13;101672.98;106328;1301;21953;-69
2022/11/28 07:08:30;;;;;;;63.20;37.20;;;;;;;7.86;64.44;101670.52;106307;1301;21958;-68
2022/11/28 11:27:14;;;;;;;12.70;9.10;;;;;;;4.92;86.69;101533.33;105371;1310;548195;-65
2022/11/28 11:29:45;;;;;;;14.50;9.30;;;;;;;7.34;75.81;101518.23;105612;1309;21963;-65
2022/11/28 11:32:22;;;;;;;15.40;10.00;;;;;;;7.66;73.42;101515.50;105624;1301;21965;-65
2022/11/28 11:34:48;;;;;;;13.30;8.30;;;;;;;7.92;72.12;101514.02;105687;1310;23603;-66
2022/11/28 11:37:29;;;;;;;11.90;7.10;;;;;;;8.10;71.17;101510.30;105635;1309;21972;-62
2022/11/28 11:39:55;;;;;;;9.80;6.90;;;;;;;8.23;70.62;101509.27;105587;1307;311919;-63
2022/11/28 11:42:25;;;;;;;9.30;5.80;;;;;;;8.33;69.95;101505.77;105925;1306;21957;-66
2022/11/28 11:44:51;;;;;;;9.20;5.90;;;;;;;8.42;69.61;101505.02;105883;1306;23614;-63
2022/11/28 11:47:16;;;;;;;8.00;5.60;;;;;;;8.54;69.36;101502.77;105912;1305;21956;-66
2022/11/28 11:49:47;;;;;;;9.20;5.40;;;;;;;8.65;68.98;101499.26;105906;1306;21964;-64
2022/11/28 11:52:24;;;;;;;8.60;5.60;;;;;;;8.74;68.84;101500.08;105876;1306;22072;-64
2022/11/28 11:54:53;;;;;;;8.70;5.50;;;;;;;8.82;68.40;101498.95;105989;1307;23600;-61
2022/11/28 11:57:24;;;;;;;9.00;5.70;;;;;;;8.88;68.00;101499.90;106020;1306;21993;-62
2022/11/28 11:59:53;;;;;;;6.40;4.50;;;;;;;8.95;67.52;101496.84;105969;1307;21958;-65
2022/11/28 12:02:24;;;;;;;7.10;4.80;;;;;;;8.97;67.24;101499.84;105988;1306;21965;-65
2022/11/28 12:04:55;;;;;;;8.30;5.60;;;;;;;8.98;66.96;101498.45;105926;1306;21999;-62
2022/11/28 12:07:44;;;;;;;9.20;5.40;;;;;;;8.98;66.99;101498.98;105786;1306;21960;-65
2022/11/28 12:10:33;;;;;;;8.50;5.70;;;;;;;9.10;66.49;101498.23;105939;1301;23141;-62
2022/11/28 12:13:00;;;;;;;10.10;6.00;;;;;;;9.13;66.03;101498.09;105739;1306;22128;-65
2022/11/28 12:15:36;;;;;;;9.30;6.50;;;;;;;9.07;66.09;101495.92;105923;1307;21948;-65
2022/11/28 12:18:09;;;;;;;9.00;6.10;;;;;;;8.94;66.32;101491.56;105920;1306;22021;-65
2022/11/28 12:20:47;;;;;;;9.20;6.40;;;;;;;8.84;66.56;101493.02;106057;1307;21962;-66
2022/11/28 12:23:20;;;;;;;9.30;5.50;;;;;;;8.74;66.73;101488.53;105825;1305;22002;-62
2022/11/28 12:25:48;;;;;;;10.60;6.70;;;;;;;8.72;66.90;101483.42;105836;1306;21973;-65
2022/11/28 12:28:23;;;;;;;10.10;6.30;;;;;;;8.86;66.61;101480.26;105643;1306;21963;-61
2022/11/28 12:30:52;;;;;;;13.60;7.60;;;;;;;8.95;66.30;101475.99;105667;1307;22419;-65
2022/11/28 12:34:06;;;;;;;8.50;5.20;;;;;;;8.93;66.35;101474.23;105775;1306;22050;-64
2022/11/28 12:36:37;;;;;;;12.80;6.80;;;;;;;8.95;66.64;101481.09;105786;1304;21948;-62
2022/11/28 12:39:16;;;;;;;12.10;7.30;;;;;;;9.03;66.53;101484.15;105771;1306;21960;-62
2022/11/28 12:42:19;;;;;;;11.80;7.20;;;;;;;9.09;66.27;101479.14;106018;1307;21944;-64
2022/11/28 12:45:16;;;;;;;10.70;7.30;;;;;;;9.14;66.02;101480.59;105934;1304;21968;-62
2022/11/28 12:47:59;;;;;;;23.50;8.80;;;;;;;9.14;66.08;101486.55;105926;1306;21966;-64
2022/11/28 12:50:39;;;;;;;10.80;6.90;;;;;;;9.16;66.15;101489.22;105903;1307;21971;-64
2022/11/28 12:53:21;;;;;;;11.70;7.70;;;;;;;9.20;65.87;101491.88;105627;1307;21967;-63
2022/11/28 12:56:02;;;;;;;12.20;7.90;;;;;;;9.19;65.64;101495.54;105912;1306;21968;-62
2022/11/28 12:58:44;;;;;;;12.90;7.60;;;;;;;9.18;65.67;101493.25;105997;1306;21970;-64
2022/11/28 13:01:28;;;;;;;12.30;8.00;;;;;;;9.25;65.70;101485.10;105978;1307;21952;-63
2022/11/28 13:04:03;;;;;;;39.70;27.90;;;;;;;9.29;65.47;101482.86;105672;1306;22004;-63
2022/11/28 13:06:39;;;;;;;185.20;130.20;;;;;;;9.32;65.25;101486.23;105650;1306;21963;-63
2022/11/28 13:09:24;;;;;;;289.90;195.70;;;;;;;9.34;65.87;101495.17;105710;1306;21971;-63
2022/11/28 13:11:56;;;;;;;137.70;99.40;;;;;;;9.50;65.99;101498.14;105852;1306;22107;-63
2022/11/28 13:14:28;;;;;;;99.70;73.00;;;;;;;9.66;65.73;101503.38;105691;1306;21964;-63
2022/11/28 13:16:56;;;;;;;48.10;34.30;;;;;;;9.81;65.56;101500.71;105678;1306;21963;-64
2022/11/28 13:19:31;;;;;;;35.00;23.80;;;;;;;9.97;65.54;101495.23;105732;1306;21958;-65
2022/11/28 13:22:13;;;;;;;106.70;63.80;;;;;;;10.07;65.65;101494.27;105761;1304;21971;-63
2022/11/28 13:24:51;;;;;;;85.70;55.90;;;;;;;10.17;65.81;101493.63;105765;1306;21982;-63
2022/11/28 13:27:43;;;;;;;46.60;28.90;;;;;;;10.22;65.84;101491.04;105768;1307;21967;-63
2022/11/28 13:30:19;;;;;;;24.80;15.80;;;;;;;10.30;65.67;101488.64;105783;1306;21960;-64
2022/11/28 13:32:47;;;;;;;171.80;124.00;;;;;;;10.31;65.58;101491.46;105742;1306;21979;-63
2022/11/28 13:35:14;;;;;;;38.10;27.10;;;;;;;10.35;65.71;101494.11;105735;1306;21968;-63
2022/11/28 13:37:57;;;;;;;21.90;16.30;;;;;;;10.36;65.61;101494.47;105794;1306;22092;-62
2022/11/28 13:40:37;;;;;;;27.80;16.30;;;;;;;10.25;65.29;101493.52;105745;1306;21966;-62
2022/11/28 13:43:20;;;;;;;21.60;12.40;;;;;;;10.25;65.51;101496.50;105740;1309;23638;-63
2022/11/28 13:45:46;;;;;;;21.40;14.80;;;;;;;10.32;65.39;101501.11;105771;1302;21964;-63
2022/11/28 13:48:52;;;;;;;18.20;12.10;;;;;;;10.33;65.57;101501.12;105663;1307;21963;-64
2022/11/28 13:51:24;;;;;;;22.10;15.80;;;;;;;10.43;65.65;101505.06;105750;1304;21974;-62
2022/11/28 13:54:20;;;;;;;23.20;12.20;;;;;;;10.52;65.37;101503.38;105806;1307;22030;-63
2022/11/28 13:57:10;;;;;;;22.90;9.90;;;;;;;10.65;64.92;101498.17;105442;1309;24307;-63
2022/11/28 13:59:36;;;;;;;21.90;10.40;;;;;;;10.64;64.85;101501.50;105779;1306;21967;-62
2022/11/28 14:02:03;;;;;;;32.40;12.80;;;;;;;10.64;64.79;101500.45;105665;1306;21954;-63
2022/11/28 14:04:30;;;;;;;21.00;11.00;;;;;;;10.71;64.51;101501.02;105798;1306;21987;-62
2022/11/28 14:07:03;;;;;;;20.40;11.10;;;;;;;10.76;64.35;101504.38;104998;1306;1003078;-65
2022/11/28 14:09:53;;;;;;;21.00;11.30;;;;;;;10.75;64.20;101502.10;105897;1307;21957;-65
2022/11/28 14:12:32;;;;;;;20.10;11.50;;;;;;;10.66;63.67;101503.62;105850;1309;21967;-61
2022/11/28 14:15:13;;;;;;;16.40;11.00;;;;;;;10.54;63.17;101504.09;105727;1309;21962;-64
2022/11/28 14:18:16;;;;;;;19.80;14.40;;;;;;;10.39;62.87;101502.40;105682;1298;21996;-64
2022/11/28 14:20:53;;;;;;;19.70;14.40;;;;;;;10.20;62.61;101509.10;105851;1306;22443;-61
2022/11/28 14:23:48;;;;;;;43.00;29.00;;;;;;;10.00;62.83;101511.74;106050;1307;22040;-65
2022/11/28 14:26:36;;;;;;;32.40;22.20;;;;;;;9.84;62.99;101515.11;105942;1307;21998;-66
2022/11/28 14:29:03;;;;;;;22.90;14.40;;;;;;;9.73;62.95;101510.12;105840;1307;23633;-66
2022/11/28 14:31:38;;;;;;;29.20;21.40;;;;;;;9.65;63.12;101513.73;105976;1307;23680;-66
2022/11/28 14:34:43;;;;;;;33.50;22.40;;;;;;;9.66;63.31;101518.64;105662;1307;21965;-63
2022/11/28 14:37:44;;;;;;;17.10;12.60;;;;;;;9.62;63.15;101514.56;105886;1307;23066;-61
2022/11/28 14:40:50;;;;;;;17.70;10.70;;;;;;;9.58;63.13;101509.80;105723;1306;21975;-60
2022/11/28 14:43:27;;;;;;;16.90;10.10;;;;;;;9.50;63.28;101506.20;106000;1307;21964;-64
2022/11/28 14:46:19;;;;;;;15.00;9.00;;;;;;;9.49;63.35;101508.11;105997;1307;22429;-64
2022/11/28 14:48:58;;;;;;;16.70;9.30;;;;;;;9.41;63.54;101506.29;106103;1307;21958;-64
